createdAt,value
2023-02-24T00:00:01.923Z,94994.2
2023-02-24T00:01:03.854Z,94991
2023-02-24T00:02:06.982Z,94993.3
2023-02-24T00:03:09.731Z,94993.7
2023-02-24T00:04:12.257Z,94991.7
2023-02-24T00:05:14.757Z,94990.7
2023-02-24T00:06:17.261Z,94991.9
2023-02-24T00:07:19.581Z,94991.3
2023-02-24T00:08:22.119Z,94989.1
2023-02-24T00:09:24.631Z,94995.1
2023-02-24T00:10:26.870Z,94985.1
2023-02-24T00:11:29.503Z,94988.6
2023-02-24T00:12:31.437Z,94983.8
2023-02-24T00:13:33.940Z,94985.7
2023-02-24T00:14:36.500Z,94979
2023-02-24T00:15:38.893Z,94984.4
2023-02-24T00:16:41.906Z,94982.2
2023-02-24T00:17:44.371Z,94980.1
2023-02-24T00:18:46.635Z,94982.1
2023-02-24T00:19:48.849Z,94981.5
2023-02-24T00:20:51.340Z,94979.1
2023-02-24T00:21:53.831Z,94976.5
2023-02-24T00:22:56.436Z,94977.6
2023-02-24T00:23:58.980Z,94979.6
2023-02-24T00:25:01.228Z,94972.3
2023-02-24T00:26:03.453Z,94975.8
2023-02-24T00:27:05.405Z,94976.3
2023-02-24T00:28:07.904Z,94976.8
2023-02-24T00:29:10.471Z,94972.8
2023-02-24T00:30:12.745Z,94975.4
2023-02-24T00:31:15.873Z,94976.8
2023-02-24T00:32:19.548Z,94974.9
2023-02-24T00:33:22.326Z,94975.1
2023-02-24T00:34:24.816Z,94973.2
2023-02-24T00:35:27.323Z,94976.2
2023-02-24T00:36:29.824Z,94971.8
2023-02-24T00:37:32.329Z,94974.9
2023-02-24T00:38:34.926Z,94974
2023-02-24T00:39:37.507Z,94974.3
2023-02-24T00:40:40.013Z,94975.7
2023-02-24T00:41:42.535Z,94973
2023-02-24T00:42:45.046Z,94970.8
2023-02-24T00:43:47.581Z,94976
2023-02-24T00:44:50.108Z,94973.5
2023-02-24T00:45:52.962Z,94973.3
2023-02-24T00:46:55.018Z,94971.9
2023-02-24T00:47:57.546Z,94971.1
2023-02-24T00:49:00.067Z,94973.7
2023-02-24T00:50:02.390Z,94974.1
2023-02-24T00:51:04.612Z,94969.9
2023-02-24T00:52:07.143Z,94969.7
2023-02-24T00:53:09.384Z,94965.3
2023-02-24T00:54:11.978Z,94965.4
2023-02-24T00:55:14.602Z,94966.8
2023-02-24T00:56:17.147Z,94964.5
2023-02-24T00:57:19.546Z,94964.5
2023-02-24T00:58:21.782Z,94959.5
2023-02-24T00:59:24.273Z,94957.2
2023-02-24T01:00:26.907Z,94958
2023-02-24T01:01:29.547Z,94957.6
2023-02-24T01:02:31.897Z,94958.2
2023-02-24T01:03:34.311Z,94956.7
2023-02-24T01:04:36.930Z,94954.6
2023-02-24T01:05:39.603Z,94953.5
2023-02-24T01:06:42.104Z,94950.6
2023-02-24T01:07:44.614Z,94949.8
2023-02-24T01:08:47.091Z,94949
2023-02-24T01:09:49.438Z,94951.7
2023-02-24T01:10:51.684Z,94950.6
2023-02-24T01:11:54.377Z,94951.3
2023-02-24T01:12:56.498Z,94945.9
2023-02-24T01:13:59.032Z,94948.5
2023-02-24T01:15:01.555Z,94944.9
2023-02-24T01:16:04.335Z,94943.4
2023-02-24T01:17:06.714Z,94940.9
2023-02-24T01:18:09.230Z,94940.2
2023-02-24T01:19:11.736Z,94939.5
2023-02-24T01:20:13.978Z,94940.5
2023-02-24T01:21:16.465Z,94934.8
2023-02-24T01:22:18.691Z,94934.4
2023-02-24T01:23:21.193Z,94935.6
2023-02-24T01:24:23.436Z,94933.2
2023-02-24T01:25:25.764Z,94929.1
2023-02-24T01:26:28.016Z,94928.2
2023-02-24T01:27:30.543Z,94931.8
2023-02-24T01:28:33.036Z,94933.6
2023-02-24T01:29:35.532Z,94926.6
2023-02-24T01:30:38.030Z,94930.2
2023-02-24T01:31:41.245Z,94935.5
2023-02-24T01:32:45.074Z,94924.7
2023-02-24T01:33:47.795Z,94928.5
2023-02-24T01:34:50.303Z,94926.5
2023-02-24T01:35:52.585Z,94924.3
2023-02-24T01:36:55.129Z,94923.9
2023-02-24T01:37:57.416Z,94924.3
2023-02-24T01:38:59.964Z,94926.9
2023-02-24T01:40:02.452Z,94926.8
2023-02-24T01:41:05.023Z,94922.8
2023-02-24T01:42:07.089Z,94925.5
2023-02-24T01:43:09.306Z,94926.1
2023-02-24T01:44:11.794Z,94923.7
2023-02-24T01:45:14.348Z,94927.6
2023-02-24T01:46:16.514Z,94920.9
2023-02-24T01:47:19.320Z,94920
2023-02-24T01:48:21.809Z,94918.9
2023-02-24T01:49:24.311Z,94915.7
2023-02-24T01:50:26.902Z,94912.1
2023-02-24T01:51:29.401Z,94907.3
2023-02-24T01:52:32.218Z,94907.4
2023-02-24T01:53:34.713Z,94907.2
2023-02-24T01:54:36.928Z,94898.6
2023-02-24T01:55:39.179Z,94901.5
2023-02-24T01:56:41.763Z,94897.8
2023-02-24T01:57:44.010Z,94894.9
2023-02-24T01:58:45.964Z,94895.9
2023-02-24T01:59:48.153Z,94896.7
2023-02-24T02:00:50.357Z,94891.9
2023-02-24T02:01:53.442Z,94889.7
2023-02-24T02:02:56.339Z,94889.7
2023-02-24T02:03:58.649Z,94891.9
2023-02-24T02:05:01.214Z,94894.6
2023-02-24T02:06:03.719Z,94888.4
2023-02-24T02:07:05.942Z,94889.4
2023-02-24T02:08:08.432Z,94886.5
2023-02-24T02:09:10.667Z,94886.2
2023-02-24T02:10:13.209Z,94884.5
2023-02-24T02:11:15.758Z,94882.5
2023-02-24T02:12:18.415Z,94884.5
2023-02-24T02:13:21.341Z,94882
2023-02-24T02:14:23.706Z,94884.2
2023-02-24T02:15:26.253Z,94882.9
2023-02-24T02:16:29.105Z,94879.4
2023-02-24T02:17:31.733Z,94885.6
2023-02-24T02:18:33.961Z,94880.4
2023-02-24T02:19:36.179Z,94878.1
2023-02-24T02:20:38.422Z,94880
2023-02-24T02:21:40.348Z,94879
2023-02-24T02:22:42.842Z,94881.3
2023-02-24T02:23:45.366Z,94881
2023-02-24T02:24:47.583Z,94878.1
2023-02-24T02:25:50.084Z,94883.4
2023-02-24T02:26:52.600Z,94879.3
2023-02-24T02:27:55.163Z,94880.8
2023-02-24T02:28:57.429Z,94876.8
2023-02-24T02:29:59.649Z,94880.2
2023-02-24T02:31:02.903Z,94876.3
2023-02-24T02:32:05.929Z,94877.1
2023-02-24T02:33:08.611Z,94871.6
2023-02-24T02:34:11.178Z,94875.7
2023-02-24T02:35:13.752Z,94879.5
2023-02-24T02:36:16.041Z,94875.4
2023-02-24T02:37:18.564Z,94877.9
2023-02-24T02:38:21.107Z,94877.2
2023-02-24T02:39:23.591Z,94874
2023-02-24T02:40:25.826Z,94874.8
2023-02-24T02:41:27.753Z,94876.8
2023-02-24T02:42:29.727Z,94874
2023-02-24T02:43:31.759Z,94874.5
2023-02-24T02:44:34.327Z,94873.3
2023-02-24T02:45:36.724Z,94872
2023-02-24T02:46:39.325Z,94876.6
2023-02-24T02:47:41.855Z,94875.6
2023-02-24T02:48:44.423Z,94873.2
2023-02-24T02:49:46.689Z,94874.4
2023-02-24T02:50:49.192Z,94874.5
2023-02-24T02:51:51.861Z,94873.7
2023-02-24T02:52:54.143Z,94872.8
2023-02-24T02:53:56.672Z,94869
2023-02-24T02:54:58.911Z,94868.4
2023-02-24T02:56:01.416Z,94868.5
2023-02-24T02:57:03.674Z,94867.1
2023-02-24T02:58:06.182Z,94871.4
2023-02-24T02:59:08.747Z,94874.2
2023-02-24T03:00:11.031Z,94874.5
2023-02-24T03:01:13.232Z,94876.9
2023-02-24T03:02:16.091Z,94880.2
2023-02-24T03:03:18.055Z,94874.8
2023-02-24T03:04:20.708Z,94874.2
2023-02-24T03:05:23.279Z,94877.7
2023-02-24T03:06:25.503Z,94875.9
2023-02-24T03:07:27.989Z,94875
2023-02-24T03:08:30.520Z,94874.7
2023-02-24T03:09:32.749Z,94867.9
2023-02-24T03:10:35.413Z,94869
2023-02-24T03:11:37.645Z,94865.9
2023-02-24T03:12:40.150Z,94867.5
2023-02-24T03:13:42.655Z,94863.8
2023-02-24T03:14:44.668Z,94867.8
2023-02-24T03:15:47.258Z,94865.5
2023-02-24T03:16:49.862Z,94861.7
2023-02-24T03:17:52.164Z,94861.4
2023-02-24T03:18:54.646Z,94862.8
2023-02-24T03:19:57.151Z,94862
2023-02-24T03:20:59.665Z,94859.5
2023-02-24T03:22:01.944Z,94863.5
2023-02-24T03:23:04.458Z,94865
2023-02-24T03:24:06.707Z,94865.3
2023-02-24T03:25:08.932Z,94861.2
2023-02-24T03:26:11.446Z,94862
2023-02-24T03:27:13.959Z,94863.7
2023-02-24T03:28:16.184Z,94865.9
2023-02-24T03:29:18.437Z,94863.2
2023-02-24T03:30:21.018Z,94863
2023-02-24T03:31:26.029Z,94860.3
2023-02-24T03:32:28.861Z,94860.9
2023-02-24T03:33:31.260Z,94860.3
2023-02-24T03:34:33.478Z,94866.6
2023-02-24T03:35:35.698Z,94861.6
2023-02-24T03:36:38.224Z,94859.3
2023-02-24T03:37:40.741Z,94854.9
2023-02-24T03:38:43.282Z,94858
2023-02-24T03:39:45.766Z,94857.4
2023-02-24T03:40:48.271Z,94854.6
2023-02-24T03:41:50.956Z,94859
2023-02-24T03:42:53.601Z,94858
2023-02-24T03:43:56.092Z,94857.5
2023-02-24T03:44:58.626Z,94856.2
2023-02-24T03:46:01.238Z,94859.6
2023-02-24T03:47:04.008Z,94857.6
2023-02-24T03:48:06.498Z,94860.2
2023-02-24T03:49:09.047Z,94858
2023-02-24T03:50:11.545Z,94857.7
2023-02-24T03:51:14.052Z,94854.5
2023-02-24T03:52:17.154Z,94850.8
2023-02-24T03:53:19.684Z,94854.9
2023-02-24T03:54:22.184Z,94855.1
2023-02-24T03:55:24.728Z,94854.2
2023-02-24T03:56:27.205Z,94854.4
2023-02-24T03:57:29.731Z,94850.5
2023-02-24T03:58:32.247Z,94854.7
2023-02-24T03:59:34.797Z,94850.4
2023-02-24T04:00:37.306Z,94849.5
2023-02-24T04:01:39.890Z,94846.6
2023-02-24T04:02:42.619Z,94847.5
2023-02-24T04:03:45.193Z,94843.7
2023-02-24T04:04:47.430Z,94840.4
2023-02-24T04:05:50.068Z,94844.4
2023-02-24T04:07:58.598Z,94832.8
2023-02-24T04:09:01.142Z,94832.4
2023-02-24T04:10:03.373Z,94833.5
2023-02-24T04:11:06.011Z,94834.8
2023-02-24T04:12:08.499Z,94833.2
2023-02-24T04:13:11.006Z,94835.6
2023-02-24T04:14:13.533Z,94834.5
2023-02-24T04:15:16.050Z,94829.5
2023-02-24T04:16:18.651Z,94833
2023-02-24T04:17:21.273Z,94834.3
2023-02-24T04:18:23.880Z,94832.2
2023-02-24T04:19:25.869Z,94829.8
2023-02-24T04:20:28.066Z,94828.5
2023-02-24T04:21:30.554Z,94832.1
2023-02-24T04:22:32.946Z,94830.5
2023-02-24T04:23:35.474Z,94830.1
2023-02-24T04:24:37.979Z,94828.3
2023-02-24T04:25:40.191Z,94828.3
2023-02-24T04:26:42.701Z,94828
2023-02-24T04:27:44.689Z,94825.5
2023-02-24T04:28:46.922Z,94829.1
2023-02-24T04:29:49.403Z,94830
2023-02-24T04:30:52.450Z,94825.6
2023-02-24T04:31:55.907Z,94823.8
2023-02-24T04:32:59.372Z,94823.7
2023-02-24T04:34:02.059Z,94819.8
2023-02-24T04:35:04.425Z,94820.2
2023-02-24T04:36:06.971Z,94817
2023-02-24T04:37:09.202Z,94817.8
2023-02-24T04:38:11.703Z,94814.1
2023-02-24T04:39:14.268Z,94815.5
2023-02-24T04:40:16.475Z,94817.6
2023-02-24T04:41:20.378Z,94813
2023-02-24T04:42:23.972Z,94812.7
2023-02-24T04:43:26.485Z,94808.7
2023-02-24T04:44:28.571Z,94808.9
2023-02-24T04:45:31.391Z,94802
2023-02-24T04:46:34.132Z,94796.5
2023-02-24T04:47:36.537Z,94800.7
2023-02-24T04:48:39.170Z,94801.3
2023-02-24T04:49:41.739Z,94798.1
2023-02-24T04:50:43.991Z,94795
2023-02-24T04:51:46.528Z,94792.6
2023-02-24T04:52:49.043Z,94788.4
2023-02-24T04:53:51.543Z,94788
2023-02-24T04:54:53.802Z,94787.1
2023-02-24T04:55:56.347Z,94786.2
2023-02-24T04:57:00.439Z,94786.1
2023-02-24T04:58:02.685Z,94787.4
2023-02-24T04:59:04.893Z,94781.9
2023-02-24T05:00:07.403Z,94783.8
2023-02-24T05:01:09.893Z,94779.8
2023-02-24T05:02:12.445Z,94777.5
2023-02-24T05:03:14.953Z,94777.2
2023-02-24T05:04:17.710Z,94777.4
2023-02-24T05:05:20.077Z,94776
2023-02-24T05:06:22.309Z,94780.1
2023-02-24T05:07:24.834Z,94776
2023-02-24T05:08:27.429Z,94774
2023-02-24T05:09:30.005Z,94773
2023-02-24T05:10:32.222Z,94770.1
2023-02-24T05:11:34.437Z,94768.9
2023-02-24T05:12:36.997Z,94763.5
2023-02-24T05:13:39.224Z,94764.1
2023-02-24T05:14:41.148Z,94762
2023-02-24T05:15:43.404Z,94758
2023-02-24T05:16:45.885Z,94752.6
2023-02-24T05:17:48.413Z,94756.9
2023-02-24T05:18:50.649Z,94752.7
2023-02-24T05:19:53.224Z,94750
2023-02-24T05:20:55.801Z,94751.8
2023-02-24T05:21:58.344Z,94751.1
2023-02-24T05:23:00.854Z,94749
2023-02-24T05:24:03.486Z,94746.9
2023-02-24T05:25:05.986Z,94748.2
2023-02-24T05:26:08.607Z,94750.6
2023-02-24T05:27:11.158Z,94746.5
2023-02-24T05:28:13.679Z,94745
2023-02-24T05:29:16.243Z,94745.1
2023-02-24T05:30:18.194Z,94744.1
2023-02-24T05:31:23.098Z,94745
2023-02-24T05:32:27.078Z,94744.4
2023-02-24T05:33:29.330Z,94745
2023-02-24T05:34:31.906Z,94746
2023-02-24T05:35:34.464Z,94741.7
2023-02-24T05:36:37.050Z,94742.7
2023-02-24T05:37:39.615Z,94741.4
2023-02-24T05:38:42.222Z,94741.2
2023-02-24T05:39:44.751Z,94739.2
2023-02-24T05:40:47.256Z,94739.2
2023-02-24T05:41:49.781Z,94740.5
2023-02-24T05:42:52.289Z,94733.8
2023-02-24T05:43:54.807Z,94732.4
2023-02-24T05:44:57.327Z,94734.5
2023-02-24T05:45:59.833Z,94738.9
2023-02-24T05:47:02.246Z,94736.7
2023-02-24T05:48:04.834Z,94737.8
2023-02-24T05:49:07.357Z,94741.6
2023-02-24T05:50:09.859Z,94738
2023-02-24T05:51:12.445Z,94739.2
2023-02-24T05:52:14.985Z,94737.6
2023-02-24T05:53:17.480Z,94736.7
2023-02-24T05:54:19.737Z,94734.6
2023-02-24T05:55:22.230Z,94731.9
2023-02-24T05:56:24.720Z,94733.6
2023-02-24T05:57:27.008Z,94734.6
2023-02-24T05:58:29.241Z,94734.3
2023-02-24T05:59:31.767Z,94731.4
2023-02-24T06:00:34.276Z,94734.8
2023-02-24T06:01:37.009Z,94730.9
2023-02-24T06:02:39.916Z,94731.3
2023-02-24T06:03:42.238Z,94731.2
2023-02-24T06:04:44.746Z,94733
2023-02-24T06:05:47.241Z,94729.5
2023-02-24T06:06:49.522Z,94728.4
2023-02-24T06:07:52.216Z,94730.9
2023-02-24T06:08:54.159Z,94726
2023-02-24T06:09:56.718Z,94730.1
2023-02-24T06:10:59.416Z,94728.5
2023-02-24T06:12:01.414Z,94733.1
2023-02-24T06:13:04.146Z,94731
2023-02-24T06:14:06.366Z,94730.1
2023-02-24T06:15:09.393Z,94729.1
2023-02-24T06:16:12.072Z,94730.5
2023-02-24T06:17:14.759Z,94730.9
2023-02-24T06:18:17.326Z,94733.1
2023-02-24T06:19:19.561Z,94732.3
2023-02-24T06:20:21.799Z,94732.1
2023-02-24T06:21:24.652Z,94726
2023-02-24T06:22:27.229Z,94732.5
2023-02-24T06:23:29.766Z,94732.5
2023-02-24T06:24:31.749Z,94731.5
2023-02-24T06:25:34.293Z,94729.8
2023-02-24T06:26:36.564Z,94734.4
2023-02-24T06:27:38.803Z,94734.7
2023-02-24T06:28:41.099Z,94734.1
2023-02-24T06:29:43.602Z,94731.9
2023-02-24T06:30:46.158Z,94732.9
2023-02-24T06:31:48.803Z,94732.5
2023-02-24T06:32:51.792Z,94730.2
2023-02-24T06:33:54.180Z,94735
2023-02-24T06:34:56.411Z,94738.1
2023-02-24T06:35:58.961Z,94738.8
2023-02-24T06:37:01.498Z,94741
2023-02-24T06:38:04.098Z,94738.8
2023-02-24T06:39:06.641Z,94741.6
2023-02-24T06:40:08.322Z,94743.9
2023-02-24T06:41:11.027Z,94741.1
2023-02-24T06:42:13.343Z,94740.6
2023-02-24T06:43:15.627Z,94742.6
2023-02-24T06:44:18.176Z,94744.3
2023-02-24T06:45:20.461Z,94741.7
2023-02-24T06:46:22.953Z,94741.4
2023-02-24T06:47:25.552Z,94744
2023-02-24T06:48:28.091Z,94746.9
2023-02-24T06:49:30.358Z,94746.5
2023-02-24T06:50:32.861Z,94747.9
2023-02-24T06:51:35.109Z,94750.6
2023-02-24T06:52:37.618Z,94747.1
2023-02-24T06:53:39.934Z,94748.5
2023-02-24T06:54:42.247Z,94744.7
2023-02-24T06:55:44.746Z,94746.5
2023-02-24T06:56:47.004Z,94746.4
2023-02-24T06:57:49.518Z,94752.4
2023-02-24T06:58:52.114Z,94748.3
2023-02-24T06:59:54.423Z,94751.4
2023-02-24T07:00:57.218Z,94749.2
2023-02-24T07:01:59.572Z,94750.8
2023-02-24T07:03:01.558Z,94746.6
2023-02-24T07:04:04.488Z,94748
2023-02-24T07:05:06.840Z,94750.6
2023-02-24T07:06:09.355Z,94744.8
2023-02-24T07:07:11.099Z,94747.4
2023-02-24T07:08:13.358Z,94745.6
2023-02-24T07:09:15.949Z,94746
2023-02-24T07:10:18.222Z,94746.3
2023-02-24T07:11:22.152Z,94740.7
2023-02-24T07:12:25.175Z,94747.7
2023-02-24T07:13:27.401Z,94746.7
2023-02-24T07:14:29.912Z,94744
2023-02-24T07:15:32.471Z,94742.4
2023-02-24T07:16:35.332Z,94743.2
2023-02-24T07:17:37.686Z,94741.3
2023-02-24T07:18:40.211Z,94742.1
2023-02-24T07:19:42.445Z,94738.3
2023-02-24T07:20:44.945Z,94737.2
2023-02-24T07:21:47.440Z,94734
2023-02-24T07:22:49.697Z,94734.4
2023-02-24T07:23:51.950Z,94730.3
2023-02-24T07:24:54.555Z,94729.7
2023-02-24T07:25:57.156Z,94731.6
2023-02-24T07:26:59.719Z,94732.6
2023-02-24T07:28:02.248Z,94727.9
2023-02-24T07:29:04.808Z,94726.9
2023-02-24T07:30:07.328Z,94729
2023-02-24T07:31:10.343Z,94726.7
2023-02-24T07:32:13.700Z,94726.4
2023-02-24T07:33:16.537Z,94726.9
2023-02-24T07:34:18.491Z,94726.1
2023-02-24T07:35:20.735Z,94727.6
2023-02-24T07:36:23.002Z,94721.1
2023-02-24T07:37:25.307Z,94723.6
2023-02-24T07:38:27.802Z,94722.7
2023-02-24T07:39:30.323Z,94723.5
2023-02-24T07:40:32.610Z,94723
2023-02-24T07:41:35.153Z,94722.6
2023-02-24T07:42:37.128Z,94720.6
2023-02-24T07:43:39.390Z,94718.6
2023-02-24T07:44:41.607Z,94719.6
2023-02-24T07:45:44.423Z,94716.7
2023-02-24T07:46:46.695Z,94718.3
2023-02-24T07:47:49.208Z,94718.1
2023-02-24T07:48:51.537Z,94717.7
2023-02-24T07:49:54.059Z,94718.3
2023-02-24T07:50:56.574Z,94712.4
2023-02-24T07:51:59.023Z,94716.3
2023-02-24T07:53:01.532Z,94709.3
2023-02-24T07:54:04.116Z,94717.2
2023-02-24T07:55:06.371Z,94718.4
2023-02-24T07:56:09.175Z,94719.3
2023-02-24T07:57:11.731Z,94717.8
2023-02-24T07:58:14.225Z,94716
2023-02-24T07:59:16.510Z,94720
2023-02-24T08:00:18.489Z,94719.7
2023-02-24T08:01:22.546Z,94714.5
2023-02-24T08:02:25.548Z,94713.1
2023-02-24T08:03:28.212Z,94715.5
2023-02-24T08:04:30.823Z,94709.4
2023-02-24T08:05:33.045Z,94707
2023-02-24T08:06:35.081Z,94706.9
2023-02-24T08:07:37.662Z,94706
2023-02-24T08:08:40.168Z,94702.7
2023-02-24T08:09:42.134Z,94706.8
2023-02-24T08:10:44.360Z,94702.9
2023-02-24T08:11:46.693Z,94697.1
2023-02-24T08:12:48.963Z,94699.2
2023-02-24T08:13:51.508Z,94693.8
2023-02-24T08:14:53.908Z,94693.1
2023-02-24T08:15:56.685Z,94694.8
2023-02-24T08:16:58.972Z,94693.5
2023-02-24T08:18:01.492Z,94697.2
2023-02-24T08:19:03.766Z,94687.4
2023-02-24T08:20:06.007Z,94692.2
2023-02-24T08:21:08.842Z,94691.9
2023-02-24T08:22:11.351Z,94690.3
2023-02-24T08:23:13.304Z,94687.8
2023-02-24T08:24:15.829Z,94681.6
2023-02-24T08:25:18.200Z,94688
2023-02-24T08:26:21.756Z,94684.8
2023-02-24T08:27:23.865Z,94683
2023-02-24T08:28:26.405Z,94684
2023-02-24T08:29:28.650Z,94681.8
2023-02-24T08:30:31.515Z,94680.9
2023-02-24T08:31:35.166Z,94679.6
2023-02-24T08:32:38.612Z,94681.2
2023-02-24T08:33:41.425Z,94682.3
2023-02-24T08:34:43.917Z,94681.3
2023-02-24T08:35:46.758Z,94678.9
2023-02-24T08:36:48.442Z,94680.9
2023-02-24T08:37:50.708Z,94675
2023-02-24T08:38:53.329Z,94675.8
2023-02-24T08:39:55.860Z,94676.2
2023-02-24T08:40:58.377Z,94674.4
2023-02-24T08:42:00.323Z,94668.7
2023-02-24T08:43:02.643Z,94668.1
2023-02-24T08:44:04.913Z,94666.5
2023-02-24T08:45:07.147Z,94665.3
2023-02-24T08:46:09.830Z,94667.1
2023-02-24T08:47:12.428Z,94659.9
2023-02-24T08:48:14.932Z,94658.8
2023-02-24T08:49:17.226Z,94656.1
2023-02-24T08:50:19.461Z,94652.6
2023-02-24T08:51:23.898Z,94654
2023-02-24T08:52:26.690Z,94656.2
2023-02-24T08:53:28.395Z,94654.9
2023-02-24T08:54:30.982Z,94658
2023-02-24T08:55:33.562Z,94657.6
2023-02-24T08:56:36.321Z,94654.5
2023-02-24T08:57:38.582Z,94656.6
2023-02-24T08:58:41.280Z,94651.7
2023-02-24T08:59:43.855Z,94649.6
2023-02-24T09:00:46.721Z,94652.1
2023-02-24T09:02:54.290Z,94654.8
2023-02-24T09:03:56.256Z,94655.2
2023-02-24T09:04:58.829Z,94650.4
2023-02-24T09:06:01.288Z,94649.3
2023-02-24T09:08:08.237Z,94650.8
2023-02-24T09:09:10.199Z,94652.3
2023-02-24T09:10:12.883Z,94652.4
2023-02-24T09:11:15.556Z,94648.2
2023-02-24T09:12:18.322Z,94646.1
2023-02-24T09:13:20.617Z,94646.1
2023-02-24T09:15:28.227Z,94638.6
2023-02-24T09:16:30.891Z,94638.3
2023-02-24T09:17:33.539Z,94642.2
2023-02-24T09:18:35.806Z,94637.4
2023-02-24T09:19:38.358Z,94633.9
2023-02-24T09:20:40.365Z,94637.6
2023-02-24T09:21:42.895Z,94629.3
2023-02-24T09:22:45.406Z,94628.4
2023-02-24T09:23:47.982Z,94625
2023-02-24T09:24:50.484Z,94625.8
2023-02-24T09:25:53.233Z,94627.5
2023-02-24T09:26:55.477Z,94622.6
2023-02-24T09:27:58.251Z,94626.7
2023-02-24T09:29:00.477Z,94623.5
2023-02-24T09:30:02.743Z,94619.5
2023-02-24T09:31:05.750Z,94618.4
2023-02-24T09:32:09.077Z,94618.2
2023-02-24T09:33:12.716Z,94619
2023-02-24T09:34:15.186Z,94620.5
2023-02-24T09:35:17.119Z,94618.4
2023-02-24T09:36:19.642Z,94612.9
2023-02-24T09:37:22.332Z,94607.6
2023-02-24T09:38:24.863Z,94608.9
2023-02-24T09:39:27.363Z,94606.7
2023-02-24T09:40:29.879Z,94609.1
2023-02-24T09:41:34.902Z,94603.5
2023-02-24T09:42:38.810Z,94598.4
2023-02-24T09:43:41.346Z,94597.8
2023-02-24T09:44:43.901Z,94595.6
2023-02-24T09:45:46.925Z,94599.6
2023-02-24T09:46:49.722Z,94596.8
2023-02-24T09:47:52.119Z,94591.6
2023-02-24T09:48:54.663Z,94592
2023-02-24T09:49:56.787Z,94585.4
2023-02-24T09:52:04.131Z,94581.4
2023-02-24T09:54:11.358Z,94586.9
2023-02-24T09:55:13.650Z,94584.7
2023-02-24T09:56:16.073Z,94583.4
2023-02-24T09:57:19.015Z,94582.4
2023-02-24T09:58:26.906Z,94584.5
2023-02-24T09:59:29.018Z,94577.5
2023-02-24T10:00:31.623Z,94577.5
2023-02-24T10:01:34.483Z,94576.6
2023-02-24T10:02:37.364Z,94575.5
2023-02-24T10:03:40.014Z,94568.1
2023-02-24T10:04:42.525Z,94570.5
2023-02-24T10:05:44.510Z,94569.1
2023-02-24T10:06:46.723Z,94572.8
2023-02-24T10:07:49.255Z,94571.1
2023-02-24T10:08:51.535Z,94567.8
2023-02-24T10:09:53.781Z,94569.2
2023-02-24T10:10:56.290Z,94565.2
2023-02-24T10:11:58.791Z,94561.9
2023-02-24T10:13:01.106Z,94559.1
2023-02-24T10:14:05.244Z,94557.5
2023-02-24T10:15:07.458Z,94555
2023-02-24T10:16:10.002Z,94551
2023-02-24T10:17:12.023Z,94553
2023-02-24T10:18:14.350Z,94548.8
2023-02-24T10:19:16.804Z,94551.9
2023-02-24T10:20:18.817Z,94547.1
2023-02-24T10:21:22.906Z,94548.8
2023-02-24T10:22:25.425Z,94548.9
2023-02-24T10:23:27.674Z,94546.5
2023-02-24T10:24:29.933Z,94546.9
2023-02-24T10:25:32.477Z,94544.1
2023-02-24T10:26:34.737Z,94552
2023-02-24T10:27:37.235Z,94542.5
2023-02-24T10:28:39.520Z,94541.8
2023-02-24T10:29:40.945Z,94540.7
2023-02-24T10:30:44.240Z,94541.8
2023-02-24T10:31:47.795Z,94540.5
2023-02-24T10:32:51.105Z,94542.5
2023-02-24T10:33:53.931Z,94541.7
2023-02-24T10:34:56.463Z,94544.8
2023-02-24T10:35:59.000Z,94546
2023-02-24T10:37:01.298Z,94548.6
2023-02-24T10:38:03.576Z,94542.3
2023-02-24T10:39:05.866Z,94540.9
2023-02-24T10:40:08.155Z,94545.1
2023-02-24T10:41:10.700Z,94543
2023-02-24T10:42:13.096Z,94540.5
2023-02-24T10:43:15.504Z,94536.1
2023-02-24T10:44:17.462Z,94536.9
2023-02-24T10:45:23.887Z,94531.5
2023-02-24T10:47:31.295Z,94532.7
2023-02-24T10:49:38.683Z,94530.6
2023-02-24T10:51:46.215Z,94523
2023-02-24T10:52:48.432Z,94521.8
2023-02-24T10:53:50.467Z,94520.6
2023-02-24T10:54:52.755Z,94517.7
2023-02-24T10:55:55.315Z,94515.6
2023-02-24T10:56:57.766Z,94517.4
2023-02-24T10:58:01.097Z,94513.8
2023-02-24T10:59:03.637Z,94513.5
2023-02-24T11:00:06.249Z,94512
2023-02-24T11:01:09.128Z,94510.6
2023-02-24T11:02:11.849Z,94507.8
2023-02-24T11:04:19.140Z,94510.1
2023-02-24T11:05:21.727Z,94504
2023-02-24T11:06:24.259Z,94507.5
2023-02-24T11:07:26.379Z,94502.3
2023-02-24T11:08:28.899Z,94504.1
2023-02-24T11:09:31.203Z,94500.3
2023-02-24T11:10:34.129Z,94500.2
2023-02-24T11:11:36.334Z,94504.8
2023-02-24T11:12:38.852Z,94494.9
2023-02-24T11:13:41.427Z,94492.5
2023-02-24T11:14:43.954Z,94485.4
2023-02-24T11:15:46.423Z,94485.8
2023-02-24T11:16:48.988Z,94483.8
2023-02-24T11:17:51.578Z,94483.9
2023-02-24T11:18:53.959Z,94483.6
2023-02-24T11:19:56.528Z,94471.3
2023-02-24T11:20:59.143Z,94479.6
2023-02-24T11:22:01.708Z,94475.8
2023-02-24T11:23:04.249Z,94469.2
2023-02-24T11:24:06.484Z,94472.4
2023-02-24T11:25:08.761Z,94468
2023-02-24T11:26:11.067Z,94467.2
2023-02-24T11:27:12.778Z,94464.6
2023-02-24T11:28:14.747Z,94461.7
2023-02-24T11:29:17.258Z,94455
2023-02-24T11:30:20.035Z,94453.6
2023-02-24T11:31:24.806Z,94452
2023-02-24T11:32:28.870Z,94452.2
2023-02-24T11:33:31.647Z,94448.5
2023-02-24T11:34:34.162Z,94453.4
2023-02-24T11:35:36.408Z,94450.9
2023-02-24T11:36:38.801Z,94449
2023-02-24T11:37:44.513Z,94444.8
2023-02-24T11:38:47.078Z,94443.3
2023-02-24T11:39:49.611Z,94439.2
2023-02-24T11:40:51.571Z,94434.5
2023-02-24T11:41:53.690Z,94430.1
2023-02-24T11:42:55.636Z,94431.3
2023-02-24T11:43:58.168Z,94427.9
2023-02-24T11:45:00.409Z,94426.8
2023-02-24T11:46:03.130Z,94429.3
2023-02-24T11:47:05.738Z,94425.5
2023-02-24T11:48:08.257Z,94422.8
2023-02-24T11:49:10.810Z,94419
2023-02-24T11:50:13.061Z,94417.3
2023-02-24T11:51:15.571Z,94408.1
2023-02-24T11:52:18.257Z,94410.1
2023-02-24T11:53:20.558Z,94411.6
2023-02-24T11:54:22.764Z,94411.1
2023-02-24T11:55:28.710Z,94412.9
2023-02-24T11:56:31.232Z,94410.1
2023-02-24T11:57:33.984Z,94406.7
2023-02-24T11:58:36.596Z,94407.8
2023-02-24T11:59:39.635Z,94404.7
2023-02-24T12:00:42.172Z,94405.4
2023-02-24T12:01:44.439Z,94401
2023-02-24T12:02:46.912Z,94397.1
2023-02-24T12:03:49.355Z,94395.5
2023-02-24T12:04:51.848Z,94392.6
2023-02-24T12:05:54.509Z,94393.5
2023-02-24T12:06:57.148Z,94394
2023-02-24T12:07:59.849Z,94393.2
2023-02-24T12:09:02.386Z,94389.2
2023-02-24T12:11:09.997Z,94385.6
2023-02-24T12:13:17.538Z,94384.7
2023-02-24T12:14:20.133Z,94384.5
2023-02-24T12:15:23.633Z,94382.5
2023-02-24T12:16:28.145Z,94383
2023-02-24T12:17:30.825Z,94381.4
2023-02-24T12:18:33.435Z,94380.3
2023-02-24T12:19:36.005Z,94374.2
2023-02-24T12:20:38.528Z,94375.4
2023-02-24T12:21:40.733Z,94373.8
2023-02-24T12:22:42.963Z,94367.6
2023-02-24T12:23:45.581Z,94375.4
2023-02-24T12:24:48.184Z,94373.2
2023-02-24T12:25:50.709Z,94372.2
2023-02-24T12:26:53.251Z,94375.2
2023-02-24T12:27:55.520Z,94370.8
2023-02-24T12:28:58.103Z,94369.3
2023-02-24T12:30:00.646Z,94364.7
2023-02-24T12:31:03.541Z,94363.8
2023-02-24T12:32:06.917Z,94359.5
2023-02-24T12:33:09.374Z,94355.9
2023-02-24T12:34:11.674Z,94363.2
2023-02-24T12:35:14.256Z,94355.8
2023-02-24T12:36:16.487Z,94352
2023-02-24T12:37:18.728Z,94353.3
2023-02-24T12:38:21.390Z,94351
2023-02-24T12:39:23.750Z,94350.5
2023-02-24T12:40:25.780Z,94350
2023-02-24T12:41:28.311Z,94348.1
2023-02-24T12:42:30.616Z,94345.9
2023-02-24T12:43:33.110Z,94346.9
2023-02-24T12:44:35.349Z,94344.2
2023-02-24T12:45:37.533Z,94348.9
2023-02-24T12:46:39.856Z,94346.8
2023-02-24T12:47:42.351Z,94342.8
2023-02-24T12:48:44.621Z,94345.5
2023-02-24T12:49:47.139Z,94342.8
2023-02-24T12:50:49.362Z,94341.7
2023-02-24T12:51:51.872Z,94344.5
2023-02-24T12:52:54.607Z,94339.9
2023-02-24T12:53:58.602Z,94340
2023-02-24T12:55:01.285Z,94333.7